Flugplatz Linkenheim

Für EDRI sind keine METAR/TAF Berichte vorhanden.
Es werden die Flugwettermeldungen vom Flugplatz Mannheim-City in 37 km Entfernung angezeigt.

Bericht für EDFM

vom 16.10. um 08:20 UTC

Wind 4 kt aus 320°

Sichtweite 10 km oder mehr

aufgelockert bewölkt in 200 ft

Temperatur 7.0°C

Taupunkt 6.0°C

Luftfeuchtigkeit 93%

Luftdruck 1022 hPa

EDFM 160820Z 32004KT 280V340 9999 SCT002 07/06 Q1022
Keine Prognose (TAF) verfügbar.
Impressum